sensor_id;sensor_type;location;lat;lon;timestamp;P1;durP1;ratioP1;P2;durP2;ratioP2
3401;SDS011;1714;49.756;8.610;2023-02-15T04:32:03;49.42;;;18.23;;
3401;SDS011;1714;49.756;8.610;2023-02-15T04:42:39;41.38;;;18.33;;
3401;SDS011;1714;49.756;8.610;2023-02-15T04:53:15;39.20;;;16.65;;
3401;SDS011;1714;49.756;8.610;2023-02-15T05:03:52;31.95;;;15.10;;
3401;SDS011;1714;49.756;8.610;2023-02-15T05:14:27;27.55;;;13.93;;
3401;SDS011;1714;49.756;8.610;2023-02-15T05:25:03;27.35;;;13.65;;
3401;SDS011;1714;49.756;8.610;2023-02-15T05:35:58;32.50;;;14.77;;
3401;SDS011;1714;49.756;8.610;2023-02-15T05:46:36;36.78;;;16.35;;
3401;SDS011;1714;49.756;8.610;2023-02-15T05:57:12;38.42;;;16.23;;
3401;SDS011;1714;49.756;8.610;2023-02-15T06:07:48;53.97;;;18.13;;
3401;SDS011;1714;49.756;8.610;2023-02-15T06:18:23;49.72;;;18.88;;
3401;SDS011;1714;49.756;8.610;2023-02-15T06:28:59;63.60;;;22.55;;
3401;SDS011;1714;49.756;8.610;2023-02-15T06:39:35;53.90;;;20.33;;
3401;SDS011;1714;49.756;8.610;2023-02-15T06:50:11;50.53;;;19.27;;
3401;SDS011;1714;49.756;8.610;2023-02-15T07:00:46;51.20;;;18.67;;
3401;SDS011;1714;49.756;8.610;2023-02-15T07:11:24;46.72;;;16.77;;
3401;SDS011;1714;49.756;8.610;2023-02-15T07:22:19;42.65;;;17.67;;
3401;SDS011;1714;49.756;8.610;2023-02-15T07:32:55;44.65;;;18.23;;
3401;SDS011;1714;49.756;8.610;2023-02-15T07:43:50;43.42;;;17.98;;
3401;SDS011;1714;49.756;8.610;2023-02-15T07:54:26;40.33;;;17.13;;
3401;SDS011;1714;49.756;8.610;2023-02-15T08:05:01;43.45;;;17.23;;
3401;SDS011;1714;49.756;8.610;2023-02-15T08:15:37;43.83;;;18.15;;
3401;SDS011;1714;49.756;8.610;2023-02-15T08:26:13;42.63;;;17.88;;
3401;SDS011;1714;49.756;8.610;2023-02-15T08:36:49;34.08;;;17.17;;
3401;SDS011;1714;49.756;8.610;2023-02-15T08:47:25;41.13;;;16.92;;
3401;SDS011;1714;49.756;8.610;2023-02-15T08:58:01;36.63;;;16.27;;
3401;SDS011;1714;49.756;8.610;2023-02-15T09:08:37;33.92;;;16.27;;
3401;SDS011;1714;49.756;8.610;2023-02-15T09:19:12;29.42;;;16.17;;
3401;SDS011;1714;49.756;8.610;2023-02-15T09:29:48;29.98;;;13.98;;
3401;SDS011;1714;49.756;8.610;2023-02-15T09:40:24;34.22;;;16.10;;
3401;SDS011;1714;49.756;8.610;2023-02-15T10:12:39;37.58;;;17.77;;
3401;SDS011;1714;49.756;8.610;2023-02-15T10:23:31;43.33;;;19.75;;
3401;SDS011;1714;49.756;8.610;2023-02-15T10:34:18;52.90;;;21.63;;
3401;SDS011;1714;49.756;8.610;2023-02-15T10:45:09;58.00;;;23.80;;
3401;SDS011;1714;49.756;8.610;2023-02-15T11:06:58;61.95;;;27.10;;
3401;SDS011;1714;49.756;8.610;2023-02-15T11:17:41;66.03;;;27.13;;
3401;SDS011;1714;49.756;8.610;2023-02-15T11:28:27;64.88;;;28.35;;
3401;SDS011;1714;49.756;8.610;2023-02-15T11:39:18;61.25;;;30.05;;
3401;SDS011;1714;49.756;8.610;2023-02-15T11:49:56;56.30;;;25.08;;
3401;SDS011;1714;49.756;8.610;2023-02-15T12:00:34;58.90;;;27.75;;
3401;SDS011;1714;49.756;8.610;2023-02-15T12:11:15;54.28;;;25.73;;
3401;SDS011;1714;49.756;8.610;2023-02-15T12:21:54;44.20;;;23.27;;
3401;SDS011;1714;49.756;8.610;2023-02-15T12:32:36;42.03;;;22.98;;
3401;SDS011;1714;49.756;8.610;2023-02-15T12:43:44;44.10;;;21.90;;
3401;SDS011;1714;49.756;8.610;2023-02-15T13:16:11;37.22;;;20.88;;
3401;SDS011;1714;49.756;8.610;2023-02-15T13:26:49;41.72;;;21.30;;
3401;SDS011;1714;49.756;8.610;2023-02-15T13:59:40;40.80;;;21.08;;
3401;SDS011;1714;49.756;8.610;2023-02-15T14:11:16;40.08;;;21.77;;
3401;SDS011;1714;49.756;8.610;2023-02-15T14:21:37;49.05;;;22.23;;
3401;SDS011;1714;49.756;8.610;2023-02-15T14:32:17;46.00;;;23.63;;
3401;SDS011;1714;49.756;8.610;2023-02-15T14:43:19;45.95;;;26.10;;
3401;SDS011;1714;49.756;8.610;2023-02-15T15:37:39;53.30;;;26.20;;
3401;SDS011;1714;49.756;8.610;2023-02-15T15:48:29;127.25;;;63.30;;
3401;SDS011;1714;49.756;8.610;2023-02-15T15:59:12;52.10;;;27.13;;
3401;SDS011;1714;49.756;8.610;2023-02-15T16:09:58;57.20;;;29.30;;
3401;SDS011;1714;49.756;8.610;2023-02-15T16:20:40;56.55;;;27.33;;
3401;SDS011;1714;49.756;8.610;2023-02-15T16:31:16;89.30;;;44.72;;
3401;SDS011;1714;49.756;8.610;2023-02-15T16:41:52;61.55;;;30.77;;
3401;SDS011;1714;49.756;8.610;2023-02-15T16:52:30;62.10;;;30.17;;
3401;SDS011;1714;49.756;8.610;2023-02-15T17:03:20;63.15;;;31.65;;
3401;SDS011;1714;49.756;8.610;2023-02-15T17:24:45;62.97;;;33.35;;
3401;SDS011;1714;49.756;8.610;2023-02-15T17:35:24;69.88;;;35.92;;
3401;SDS011;1714;49.756;8.610;2023-02-15T17:56:38;69.72;;;34.55;;
3401;SDS011;1714;49.756;8.610;2023-02-15T18:07:13;65.30;;;32.67;;
3401;SDS011;1714;49.756;8.610;2023-02-15T18:18:11;74.25;;;34.80;;
3401;SDS011;1714;49.756;8.610;2023-02-15T18:28:47;62.47;;;31.80;;
3401;SDS011;1714;49.756;8.610;2023-02-15T18:39:25;68.28;;;33.35;;
3401;SDS011;1714;49.756;8.610;2023-02-15T18:50:04;74.72;;;37.53;;
3401;SDS011;1714;49.756;8.610;2023-02-15T19:00:40;69.40;;;35.20;;
3401;SDS011;1714;49.756;8.610;2023-02-15T19:11:18;79.07;;;36.90;;
3401;SDS011;1714;49.756;8.610;2023-02-15T19:21:57;72.90;;;35.83;;
3401;SDS011;1714;49.756;8.610;2023-02-15T19:32:34;75.35;;;39.00;;
3401;SDS011;1714;49.756;8.610;2023-02-15T19:43:13;72.25;;;33.90;;
3401;SDS011;1714;49.756;8.610;2023-02-15T19:53:51;69.65;;;32.55;;
3401;SDS011;1714;49.756;8.610;2023-02-15T20:04:27;67.28;;;34.42;;
3401;SDS011;1714;49.756;8.610;2023-02-15T20:15:07;77.18;;;34.38;;
3401;SDS011;1714;49.756;8.610;2023-02-15T20:25:52;81.80;;;37.03;;
3401;SDS011;1714;49.756;8.610;2023-02-15T20:36:29;79.75;;;34.88;;
3401;SDS011;1714;49.756;8.610;2023-02-15T20:47:04;85.78;;;35.08;;
3401;SDS011;1714;49.756;8.610;2023-02-15T20:57:41;80.65;;;35.63;;
3401;SDS011;1714;49.756;8.610;2023-02-15T21:08:18;75.47;;;37.50;;
3401;SDS011;1714;49.756;8.610;2023-02-15T21:18:56;84.75;;;38.03;;
3401;SDS011;1714;49.756;8.610;2023-02-15T21:29:32;90.80;;;39.75;;
3401;SDS011;1714;49.756;8.610;2023-02-15T21:40:13;83.60;;;37.58;;
3401;SDS011;1714;49.756;8.610;2023-02-15T21:50:50;82.53;;;38.70;;
3401;SDS011;1714;49.756;8.610;2023-02-15T22:01:48;86.03;;;39.35;;
3401;SDS011;1714;49.756;8.610;2023-02-15T22:12:24;91.93;;;40.53;;
3401;SDS011;1714;49.756;8.610;2023-02-15T22:23:00;92.57;;;41.25;;
